PWSweather.com
Personal Weather Stations
Station Observations
IPORTUGA89
BarosaPT

BarosaPT

Lat: 39.754028, Lon: -8.843

Elevation: 98

Station Type: Davis Vp2

High Low Average
Temperature 63.7°F17.6°C 34.2°F1.2°C 48.1°F8.9°C
Dew Point 50.2°F10.1°C 32.7°F0.4°C 42.4°F5.8°C
Winds 11.0 mph 17.7 kmh Calm Calm 2.0 mph WNW3.2 kmh WNW
Wind Gusts 19.9 mph32.0 kmh -- 5.0 mph8.0 kmh
Humidity 96% 50% 83%
Pressure 30.33 in1027.1 mb 30.19 in1022.4 mb -
Precipitation 0.01 in0.3 mm - -
Hour Temp Dew Point Humidity Winds Wind Gusts Pressure Precip Precip Rate Daily Precip Total
12:00 AM 39.7°F4.3°C 37.9°F3.3°C 93% Calm Calm -- 30.33 in1027.1 mb 0.00 in0.0 mm 0.00 in0.0 mm 0.00 in0.0 mm
12:10 AM 39.6°F4.2°C 37.8°F3.2°C 93% Calm Calm -- 30.32 in1026.8 mb 0.00 in0.0 mm 0.00 in0.0 mm 0.00 in0.0 mm
12:20 AM 39.4°F4.1°C 37.6°F3.1°C 93% Calm Calm -- 30.32 in1026.8 mb 0.00 in0.0 mm 0.00 in0.0 mm 0.00 in0.0 mm
12:30 AM 39.4°F4.1°C 37.6°F3.1°C 93% Calm Calm -- 30.32 in1026.8 mb 0.00 in0.0 mm 0.00 in0.0 mm 0.00 in0.0 mm
12:41 AM 39.4°F4.1°C 37.6°F3.1°C 93% Calm Calm -- 30.32 in1026.8 mb 0.00 in0.0 mm 0.00 in0.0 mm 0.00 in0.0 mm
12:51 AM 39.0°F3.9°C 37.2°F2.9°C 93% Calm Calm -- 30.31 in1026.4 mb 0.00 in0.0 mm 0.00 in0.0 mm 0.00 in0.0 mm
01:01 AM 38.8°F3.8°C 37.0°F2.8°C 93% Calm Calm -- 30.31 in1026.4 mb 0.00 in0.0 mm 0.00 in0.0 mm 0.00 in0.0 mm
01:11 AM 38.7°F3.7°C 36.9°F2.7°C 93% Calm Calm -- 30.31 in1026.4 mb 0.00 in0.0 mm 0.00 in0.0 mm 0.00 in0.0 mm
01:21 AM 38.5°F3.6°C 36.7°F2.6°C 93% Calm Calm -- 30.30 in1026.1 mb 0.00 in0.0 mm 0.00 in0.0 mm 0.00 in0.0 mm
01:31 AM 38.3°F3.5°C 36.7°F2.6°C 94% Calm Calm -- 30.30 in1026.1 mb 0.00 in0.0 mm 0.00 in0.0 mm 0.00 in0.0 mm
01:42 AM 38.3°F3.5°C 36.7°F2.6°C 94% Calm Calm -- 30.30 in1026.1 mb 0.00 in0.0 mm 0.00 in0.0 mm 0.00 in0.0 mm
01:52 AM 37.9°F3.3°C 36.1°F2.3°C 93% Calm Calm -- 30.30 in1026.1 mb 0.00 in0.0 mm 0.00 in0.0 mm 0.00 in0.0 mm
02:02 AM 37.8°F3.2°C 36.1°F2.3°C 94% Calm Calm -- 30.30 in1026.1 mb 0.00 in0.0 mm 0.00 in0.0 mm 0.00 in0.0 mm
02:12 AM 37.9°F3.3°C 36.3°F2.4°C 94% Calm Calm -- 30.29 in1025.7 mb 0.00 in0.0 mm 0.00 in0.0 mm 0.00 in0.0 mm
02:22 AM 37.8°F3.2°C 36.1°F2.3°C 94% Calm Calm -- 30.29 in1025.7 mb 0.00 in0.0 mm 0.00 in0.0 mm 0.00 in0.0 mm
02:32 AM 37.8°F3.2°C 36.1°F2.3°C 94% Calm Calm -- 30.29 in1025.7 mb 0.00 in0.0 mm 0.00 in0.0 mm 0.00 in0.0 mm
02:42 AM 37.6°F3.1°C 36.0°F2.2°C 94% Calm Calm -- 30.29 in1025.7 mb 0.00 in0.0 mm 0.00 in0.0 mm 0.00 in0.0 mm
02:53 AM 37.4°F3.0°C 35.8°F2.1°C 94% Calm Calm -- 30.29 in1025.7 mb 0.00 in0.0 mm 0.00 in0.0 mm 0.00 in0.0 mm
03:03 AM 37.2°F2.9°C 35.6°F2.0°C 94% Calm Calm -- 30.29 in1025.7 mb 0.00 in0.0 mm 0.00 in0.0 mm 0.00 in0.0 mm
03:13 AM 37.2°F2.9°C 35.6°F2.0°C 94% Calm Calm -- 30.29 in1025.7 mb 0.00 in0.0 mm 0.00 in0.0 mm 0.00 in0.0 mm
03:23 AM 36.9°F2.7°C 35.2°F1.8°C 94% Calm Calm -- 30.29 in1025.7 mb 0.00 in0.0 mm 0.00 in0.0 mm 0.00 in0.0 mm
03:33 AM 36.9°F2.7°C 35.2°F1.8°C 94% Calm Calm -- 30.29 in1025.7 mb 0.00 in0.0 mm 0.00 in0.0 mm 0.00 in0.0 mm
03:43 AM 36.9°F2.7°C 35.2°F1.8°C 94% Calm Calm -- 30.29 in1025.7 mb 0.00 in0.0 mm 0.00 in0.0 mm 0.00 in0.0 mm
03:53 AM 36.3°F2.4°C 34.7°F1.5°C 94% Calm Calm -- 30.29 in1025.7 mb 0.00 in0.0 mm 0.00 in0.0 mm 0.00 in0.0 mm
04:03 AM 36.0°F2.2°C 34.3°F1.3°C 94% Calm Calm -- 30.29 in1025.7 mb 0.00 in0.0 mm 0.00 in0.0 mm 0.00 in0.0 mm
04:14 AM 35.8°F2.1°C 34.2°F1.2°C 94% Calm Calm -- 30.29 in1025.7 mb 0.00 in0.0 mm 0.00 in0.0 mm 0.00 in0.0 mm
04:24 AM 35.8°F2.1°C 34.2°F1.2°C 94% Calm Calm -- 30.29 in1025.7 mb 0.00 in0.0 mm 0.00 in0.0 mm 0.00 in0.0 mm
04:34 AM 36.1°F2.3°C 34.5°F1.4°C 94% Calm Calm -- 30.29 in1025.7 mb 0.00 in0.0 mm 0.00 in0.0 mm 0.00 in0.0 mm
04:44 AM 36.7°F2.6°C 35.4°F1.9°C 95% Calm Calm -- 30.29 in1025.7 mb 0.00 in0.0 mm 0.00 in0.0 mm 0.00 in0.0 mm
04:54 AM 36.7°F2.6°C 35.1°F1.7°C 94% Calm Calm -- 30.29 in1025.7 mb 0.00 in0.0 mm 0.00 in0.0 mm 0.00 in0.0 mm
05:04 AM 36.5°F2.5°C 34.9°F1.6°C 94% Calm Calm -- 30.29 in1025.7 mb 0.00 in0.0 mm 0.00 in0.0 mm 0.00 in0.0 mm
05:14 AM 36.7°F2.6°C 35.4°F1.9°C 95% Calm Calm -- 30.30 in1026.1 mb 0.00 in0.0 mm 0.00 in0.0 mm 0.00 in0.0 mm
05:25 AM 36.3°F2.4°C 34.7°F1.5°C 94% Calm Calm -- 30.29 in1025.7 mb 0.00 in0.0 mm 0.00 in0.0 mm 0.00 in0.0 mm
05:35 AM 36.1°F2.3°C 34.5°F1.4°C 94% Calm Calm -- 30.30 in1026.1 mb 0.00 in0.0 mm 0.00 in0.0 mm 0.00 in0.0 mm
05:45 AM 35.1°F1.7°C 33.4°F0.8°C 94% Calm Calm -- 30.30 in1026.1 mb 0.00 in0.0 mm 0.00 in0.0 mm 0.00 in0.0 mm
05:55 AM 34.5°F1.4°C 32.9°F0.5°C 94% Calm Calm -- 30.30 in1026.1 mb 0.01 in0.3 mm 0.06 in1.5 mm 0.01 in0.3 mm
06:05 AM 34.9°F1.6°C 33.6°F0.9°C 95% Calm Calm -- 30.30 in1026.1 mb 0.01 in0.3 mm 0.00 in0.0 mm 0.01 in0.3 mm
06:15 AM 35.1°F1.7°C 33.4°F0.8°C 94% Calm Calm -- 30.30 in1026.1 mb 0.01 in0.3 mm 0.00 in0.0 mm 0.01 in0.3 mm
06:25 AM 34.9°F1.6°C 33.3°F0.7°C 94% Calm Calm -- 30.30 in1026.1 mb 0.01 in0.3 mm 0.00 in0.0 mm 0.01 in0.3 mm
06:35 AM 34.5°F1.4°C 33.3°F0.7°C 95% Calm Calm -- 30.31 in1026.4 mb 0.01 in0.3 mm 0.00 in0.0 mm 0.01 in0.3 mm
06:45 AM 34.7°F1.5°C 33.4°F0.8°C 95% Calm Calm -- 30.30 in1026.1 mb 0.01 in0.3 mm 0.00 in0.0 mm 0.01 in0.3 mm
06:55 AM 34.7°F1.5°C 33.4°F0.8°C 95% Calm Calm -- 30.31 in1026.4 mb 0.00 in0.0 mm 0.00 in0.0 mm 0.01 in0.3 mm
07:05 AM 34.5°F1.4°C 33.3°F0.7°C 95% Calm Calm -- 30.31 in1026.4 mb 0.00 in0.0 mm 0.00 in0.0 mm 0.01 in0.3 mm
07:15 AM 34.5°F1.4°C 33.3°F0.7°C 95% Calm Calm -- 30.31 in1026.4 mb 0.00 in0.0 mm 0.00 in0.0 mm 0.01 in0.3 mm
07:26 AM 34.3°F1.3°C 32.7°F0.4°C 94% Calm Calm -- 30.31 in1026.4 mb 0.00 in0.0 mm 0.00 in0.0 mm 0.01 in0.3 mm
07:36 AM 34.2°F1.2°C 32.9°F0.5°C 95% Calm Calm -- 30.32 in1026.8 mb 0.00 in0.0 mm 0.00 in0.0 mm 0.01 in0.3 mm
07:46 AM 34.2°F1.2°C 32.9°F0.5°C 95% Calm Calm -- 30.31 in1026.4 mb 0.00 in0.0 mm 0.00 in0.0 mm 0.01 in0.3 mm
07:56 AM 34.2°F1.2°C 32.9°F0.5°C 95% Calm Calm -- 30.31 in1026.4 mb 0.00 in0.0 mm 0.00 in0.0 mm 0.01 in0.3 mm
08:06 AM 34.3°F1.3°C 33.1°F0.6°C 95% Calm Calm -- 30.31 in1026.4 mb 0.00 in0.0 mm 0.00 in0.0 mm 0.01 in0.3 mm
08:16 AM 35.1°F1.7°C 33.8°F1.0°C 95% Calm Calm -- 30.31 in1026.4 mb 0.00 in0.0 mm 0.00 in0.0 mm 0.01 in0.3 mm
08:26 AM 35.2°F1.8°C 34.0°F1.1°C 95% Calm Calm -- 30.31 in1026.4 mb 0.00 in0.0 mm 0.00 in0.0 mm 0.01 in0.3 mm
08:36 AM 35.8°F2.1°C 34.5°F1.4°C 95% Calm Calm -- 30.31 in1026.4 mb 0.00 in0.0 mm 0.00 in0.0 mm 0.01 in0.3 mm
08:46 AM 36.3°F2.4°C 35.1°F1.7°C 95% Calm Calm -- 30.32 in1026.8 mb 0.00 in0.0 mm 0.00 in0.0 mm 0.01 in0.3 mm
08:56 AM 37.2°F2.9°C 36.0°F2.2°C 95% Calm Calm -- 30.31 in1026.4 mb 0.00 in0.0 mm 0.00 in0.0 mm 0.01 in0.3 mm
09:07 AM 38.3°F3.5°C 37.0°F2.8°C 95% Calm Calm -- 30.32 in1026.8 mb 0.00 in0.0 mm 0.00 in0.0 mm 0.01 in0.3 mm
09:17 AM 39.9°F4.4°C 38.8°F3.8°C 96% Calm Calm -- 30.32 in1026.8 mb 0.00 in0.0 mm 0.00 in0.0 mm 0.01 in0.3 mm
09:27 AM 41.2°F5.1°C 40.1°F4.5°C 96% Calm Calm -- 30.31 in1026.4 mb 0.00 in0.0 mm 0.00 in0.0 mm 0.01 in0.3 mm
09:37 AM 42.4°F5.8°C 41.4°F5.2°C 96% Calm Calm -- 30.30 in1026.1 mb 0.00 in0.0 mm 0.00 in0.0 mm 0.01 in0.3 mm
09:47 AM 43.5°F6.4°C 42.4°F5.8°C 96% Calm Calm -- 30.30 in1026.1 mb 0.00 in0.0 mm 0.00 in0.0 mm 0.01 in0.3 mm
09:57 AM 45.0°F7.2°C 43.9°F6.6°C 96% Calm Calm 0.9 mph1.4 kmh 30.31 in1026.4 mb 0.00 in0.0 mm 0.00 in0.0 mm 0.01 in0.3 mm
10:07 AM 46.8°F8.2°C 45.7°F7.6°C 96% Calm Calm -- 30.32 in1026.8 mb 0.00 in0.0 mm 0.00 in0.0 mm 0.01 in0.3 mm
10:17 AM 48.6°F9.2°C 47.1°F8.4°C 95% Calm Calm 0.9 mph1.4 kmh 30.32 in1026.8 mb 0.00 in0.0 mm 0.00 in0.0 mm 0.01 in0.3 mm
10:27 AM 49.8°F9.9°C 47.3°F8.5°C 91% Calm Calm -- 30.32 in1026.8 mb 0.00 in0.0 mm 0.00 in0.0 mm 0.01 in0.3 mm
10:37 AM 51.4°F10.8°C 48.4°F9.1°C 89% Calm Calm -- 30.32 in1026.8 mb 0.00 in0.0 mm 0.00 in0.0 mm 0.01 in0.3 mm
10:48 AM 53.6°F12.0°C 49.3°F9.6°C 85% Calm Calm -- 30.32 in1026.8 mb 0.00 in0.0 mm 0.00 in0.0 mm 0.01 in0.3 mm
10:58 AM 55.4°F13.0°C 49.3°F9.6°C 80% Calm Calm -- 30.32 in1026.8 mb 0.00 in0.0 mm 0.00 in0.0 mm 0.01 in0.3 mm
11:08 AM 57.0°F13.9°C 48.7°F9.3°C 74% Calm Calm 2.0 mph3.2 kmh 30.32 in1026.8 mb 0.00 in0.0 mm 0.00 in0.0 mm 0.01 in0.3 mm
11:18 AM 57.9°F14.4°C 48.9°F9.4°C 72% 0.9 mph NE1.4 kmh NE 4.0 mph6.4 kmh 30.32 in1026.8 mb 0.00 in0.0 mm 0.00 in0.0 mm 0.01 in0.3 mm
11:28 AM 58.5°F14.7°C 50.2°F10.1°C 74% Calm Calm 4.0 mph6.4 kmh 30.31 in1026.4 mb 0.00 in0.0 mm 0.00 in0.0 mm 0.01 in0.3 mm
11:38 AM 59.4°F15.2°C 46.8°F8.2°C 63% 4.0 mph NNW6.4 kmh NNW 8.9 mph14.3 kmh 30.31 in1026.4 mb 0.00 in0.0 mm 0.00 in0.0 mm 0.01 in0.3 mm
11:48 AM 60.3°F15.7°C 46.4°F8.0°C 60% 2.9 mph NW4.7 kmh NW 6.0 mph9.7 kmh 30.30 in1026.1 mb 0.00 in0.0 mm 0.00 in0.0 mm 0.01 in0.3 mm
11:58 AM 61.2°F16.2°C 47.7°F8.7°C 61% 2.0 mph NW3.2 kmh NW 4.0 mph6.4 kmh 30.29 in1025.7 mb 0.00 in0.0 mm 0.00 in0.0 mm 0.01 in0.3 mm
12:08 PM 61.5°F16.4°C 45.7°F7.6°C 56% 2.9 mph NW4.7 kmh NW 6.9 mph11.1 kmh 30.29 in1025.7 mb 0.00 in0.0 mm 0.00 in0.0 mm 0.01 in0.3 mm
12:18 PM 62.1°F16.7°C 45.7°F7.6°C 55% 4.0 mph NW6.4 kmh NW 8.1 mph13.0 kmh 30.29 in1025.7 mb 0.00 in0.0 mm 0.00 in0.0 mm 0.01 in0.3 mm
12:28 PM 62.4°F16.9°C 46.0°F7.8°C 55% 4.0 mph NW6.4 kmh NW 8.9 mph14.3 kmh 30.29 in1025.7 mb 0.00 in0.0 mm 0.00 in0.0 mm 0.01 in0.3 mm
12:38 PM 62.4°F16.9°C 44.6°F7.0°C 52% 6.0 mph NNW9.7 kmh NNW 12.1 mph19.5 kmh 30.28 in1025.4 mb 0.00 in0.0 mm 0.00 in0.0 mm 0.01 in0.3 mm
12:48 PM 62.4°F16.9°C 44.6°F7.0°C 52% 6.9 mph N11.1 kmh N 12.1 mph19.5 kmh 30.28 in1025.4 mb 0.00 in0.0 mm 0.00 in0.0 mm 0.01 in0.3 mm
12:58 PM 63.0°F17.2°C 46.0°F7.8°C 54% 4.9 mph N7.9 kmh N 10.1 mph16.3 kmh 30.27 in1025.1 mb 0.00 in0.0 mm 0.00 in0.0 mm 0.01 in0.3 mm
01:08 PM 63.0°F17.2°C 44.1°F6.7°C 50% 6.0 mph N9.7 kmh N 12.1 mph19.5 kmh 30.26 in1024.7 mb 0.00 in0.0 mm 0.00 in0.0 mm 0.01 in0.3 mm
01:18 PM 63.3°F17.4°C 46.9°F8.3°C 55% 4.9 mph NW7.9 kmh NW 10.1 mph16.3 kmh 30.26 in1024.7 mb 0.00 in0.0 mm 0.00 in0.0 mm 0.01 in0.3 mm
01:28 PM 63.7°F17.6°C 46.8°F8.2°C 54% 6.0 mph NW9.7 kmh NW 13.0 mph20.9 kmh 30.25 in1024.4 mb 0.00 in0.0 mm 0.00 in0.0 mm 0.01 in0.3 mm
01:38 PM 63.1°F17.3°C 45.7°F7.6°C 53% 8.9 mph N14.3 kmh N 14.1 mph22.7 kmh 30.25 in1024.4 mb 0.00 in0.0 mm 0.00 in0.0 mm 0.01 in0.3 mm
01:48 PM 62.8°F17.1°C 45.3°F7.4°C 53% 8.1 mph NW13.0 kmh NW 14.1 mph22.7 kmh 30.25 in1024.4 mb 0.00 in0.0 mm 0.00 in0.0 mm 0.01 in0.3 mm
01:58 PM 62.8°F17.1°C 45.0°F7.2°C 52% 8.1 mph NNE13.0 kmh NNE 12.1 mph19.5 kmh 30.24 in1024.0 mb 0.00 in0.0 mm 0.00 in0.0 mm 0.01 in0.3 mm
02:08 PM 63.0°F17.2°C 45.1°F7.3°C 52% 8.1 mph NNW13.0 kmh NNW 13.0 mph20.9 kmh 30.24 in1024.0 mb 0.00 in0.0 mm 0.00 in0.0 mm 0.01 in0.3 mm
02:18 PM 63.0°F17.2°C 45.1°F7.3°C 52% 8.9 mph NNW14.3 kmh NNW 14.1 mph22.7 kmh 30.23 in1023.7 mb 0.00 in0.0 mm 0.00 in0.0 mm 0.01 in0.3 mm
02:28 PM 63.3°F17.4°C 46.4°F8.0°C 54% 4.9 mph NNW7.9 kmh NNW 10.1 mph16.3 kmh 30.22 in1023.4 mb 0.00 in0.0 mm 0.00 in0.0 mm 0.01 in0.3 mm
02:38 PM 63.0°F17.2°C 46.0°F7.8°C 54% 6.0 mph N9.7 kmh N 12.1 mph19.5 kmh 30.22 in1023.4 mb 0.00 in0.0 mm 0.00 in0.0 mm 0.01 in0.3 mm
02:48 PM 63.1°F17.3°C 45.1°F7.3°C 52% 4.9 mph NW7.9 kmh NW 8.1 mph13.0 kmh 30.21 in1023.0 mb 0.00 in0.0 mm 0.00 in0.0 mm 0.01 in0.3 mm
02:58 PM 63.0°F17.2°C 46.0°F7.8°C 54% 4.9 mph W7.9 kmh W 8.1 mph13.0 kmh 30.20 in1022.7 mb 0.00 in0.0 mm 0.00 in0.0 mm 0.01 in0.3 mm
03:08 PM 63.0°F17.2°C 46.6°F8.1°C 55% 4.0 mph NW6.4 kmh NW 10.1 mph16.3 kmh 30.20 in1022.7 mb 0.00 in0.0 mm 0.00 in0.0 mm 0.01 in0.3 mm
03:18 PM 63.1°F17.3°C 46.8°F8.2°C 55% 4.9 mph NW7.9 kmh NW 10.1 mph16.3 kmh 30.20 in1022.7 mb 0.00 in0.0 mm 0.00 in0.0 mm 0.01 in0.3 mm
03:28 PM 63.3°F17.4°C 46.4°F8.0°C 54% 4.9 mph NW7.9 kmh NW 8.9 mph14.3 kmh 30.19 in1022.4 mb 0.00 in0.0 mm 0.00 in0.0 mm 0.01 in0.3 mm
03:38 PM 63.3°F17.4°C 45.3°F7.4°C 52% 6.0 mph NW9.7 kmh NW 11.0 mph17.7 kmh 30.20 in1022.7 mb 0.00 in0.0 mm 0.00 in0.0 mm 0.01 in0.3 mm
03:48 PM 63.3°F17.4°C 45.9°F7.7°C 53% 6.9 mph N11.1 kmh N 11.0 mph17.7 kmh 30.20 in1022.7 mb 0.00 in0.0 mm 0.00 in0.0 mm 0.01 in0.3 mm
03:58 PM 63.1°F17.3°C 47.1°F8.4°C 56% 6.9 mph N11.1 kmh N 12.1 mph19.5 kmh 30.20 in1022.7 mb 0.00 in0.0 mm 0.00 in0.0 mm 0.01 in0.3 mm
04:08 PM 62.6°F17.0°C 48.9°F9.4°C 61% 8.1 mph NNW13.0 kmh NNW 14.1 mph22.7 kmh 30.20 in1022.7 mb 0.00 in0.0 mm 0.00 in0.0 mm 0.01 in0.3 mm
04:18 PM 61.2°F16.2°C 49.3°F9.6°C 65% 8.9 mph NNW14.3 kmh NNW 17.0 mph27.4 kmh 30.21 in1023.0 mb 0.00 in0.0 mm 0.00 in0.0 mm 0.01 in0.3 mm
04:28 PM 59.5°F15.3°C 49.8°F9.9°C 70% 10.1 mph NW16.3 kmh NW 17.0 mph27.4 kmh 30.21 in1023.0 mb 0.00 in0.0 mm 0.00 in0.0 mm 0.01 in0.3 mm
04:38 PM 58.5°F14.7°C 49.8°F9.9°C 73% 8.1 mph NW13.0 kmh NW 15.0 mph24.1 kmh 30.21 in1023.0 mb 0.00 in0.0 mm 0.00 in0.0 mm 0.01 in0.3 mm
04:48 PM 57.0°F13.9°C 49.1°F9.5°C 75% 8.9 mph NW14.3 kmh NW 17.0 mph27.4 kmh 30.21 in1023.0 mb 0.00 in0.0 mm 0.00 in0.0 mm 0.01 in0.3 mm
04:58 PM 56.1°F13.4°C 49.6°F9.8°C 79% 11.0 mph NW17.7 kmh NW 19.9 mph32.0 kmh 30.21 in1023.0 mb 0.00 in0.0 mm 0.00 in0.0 mm 0.01 in0.3 mm
05:08 PM 55.2°F12.9°C 49.5°F9.7°C 81% 8.1 mph NW13.0 kmh NW 16.1 mph25.9 kmh 30.21 in1023.0 mb 0.00 in0.0 mm 0.00 in0.0 mm 0.01 in0.3 mm
05:18 PM 54.5°F12.5°C 49.1°F9.5°C 82% 8.9 mph N14.3 kmh N 15.0 mph24.1 kmh 30.21 in1023.0 mb 0.00 in0.0 mm 0.00 in0.0 mm 0.01 in0.3 mm
05:29 PM 54.0°F12.2°C 48.9°F9.4°C 83% 4.9 mph NW7.9 kmh NW 13.0 mph20.9 kmh 30.20 in1022.7 mb 0.00 in0.0 mm 0.00 in0.0 mm 0.01 in0.3 mm
05:39 PM 53.6°F12.0°C 48.9°F9.4°C 84% 6.0 mph N9.7 kmh N 13.0 mph20.9 kmh 30.20 in1022.7 mb 0.00 in0.0 mm 0.00 in0.0 mm 0.01 in0.3 mm
05:49 PM 53.2°F11.8°C 48.9°F9.4°C 85% 6.0 mph WNW9.7 kmh WNW 11.0 mph17.7 kmh 30.20 in1022.7 mb 0.00 in0.0 mm 0.00 in0.0 mm 0.01 in0.3 mm
05:59 PM 52.7°F11.5°C 48.6°F9.2°C 86% 2.9 mph NNW4.7 kmh NNW 8.9 mph14.3 kmh 30.20 in1022.7 mb 0.00 in0.0 mm 0.00 in0.0 mm 0.01 in0.3 mm
06:09 PM 52.2°F11.2°C 48.0°F8.9°C 86% 2.9 mph NW4.7 kmh NW 8.1 mph13.0 kmh 30.20 in1022.7 mb 0.00 in0.0 mm 0.00 in0.0 mm 0.01 in0.3 mm
06:19 PM 51.8°F11.0°C 48.0°F8.9°C 87% 4.9 mph NNW7.9 kmh NNW 10.1 mph16.3 kmh 30.20 in1022.7 mb 0.00 in0.0 mm 0.00 in0.0 mm 0.01 in0.3 mm
06:29 PM 51.6°F10.9°C 47.8°F8.8°C 87% 4.0 mph NW6.4 kmh NW 10.1 mph16.3 kmh 30.20 in1022.7 mb 0.00 in0.0 mm 0.00 in0.0 mm 0.01 in0.3 mm
06:39 PM 51.3°F10.7°C 47.8°F8.8°C 88% Calm Calm -- 30.20 in1022.7 mb 0.00 in0.0 mm 0.00 in0.0 mm 0.01 in0.3 mm
06:49 PM 51.1°F10.6°C 47.7°F8.7°C 88% 0.9 mph NW1.4 kmh NW 6.9 mph11.1 kmh 30.21 in1023.0 mb 0.00 in0.0 mm 0.00 in0.0 mm 0.01 in0.3 mm
06:59 PM 51.1°F10.6°C 48.0°F8.9°C 89% Calm Calm -- 30.21 in1023.0 mb 0.00 in0.0 mm 0.00 in0.0 mm 0.01 in0.3 mm
07:09 PM 51.3°F10.7°C 48.2°F9.0°C 89% 4.9 mph NW7.9 kmh NW 12.1 mph19.5 kmh 30.22 in1023.4 mb 0.00 in0.0 mm 0.00 in0.0 mm 0.01 in0.3 mm
07:19 PM 51.4°F10.8°C 48.0°F8.9°C 88% 4.9 mph N7.9 kmh N 11.0 mph17.7 kmh 30.22 in1023.4 mb 0.00 in0.0 mm 0.00 in0.0 mm 0.01 in0.3 mm
07:29 PM 51.6°F10.9°C 48.2°F9.0°C 88% 4.9 mph NNW7.9 kmh NNW 11.0 mph17.7 kmh 30.22 in1023.4 mb 0.00 in0.0 mm 0.00 in0.0 mm 0.01 in0.3 mm
07:39 PM 51.8°F11.0°C 48.0°F8.9°C 87% 6.0 mph NNW9.7 kmh NNW 13.0 mph20.9 kmh 30.22 in1023.4 mb 0.00 in0.0 mm 0.00 in0.0 mm 0.01 in0.3 mm
07:49 PM 52.0°F11.1°C 48.2°F9.0°C 87% Calm Calm 8.9 mph14.3 kmh 30.22 in1023.4 mb 0.00 in0.0 mm 0.00 in0.0 mm 0.01 in0.3 mm
07:59 PM 52.0°F11.1°C 48.2°F9.0°C 87% 4.0 mph 6.4 kmh 12.1 mph19.5 kmh 30.23 in1023.7 mb 0.00 in0.0 mm 0.00 in0.0 mm 0.01 in0.3 mm
08:09 PM 52.2°F11.2°C 48.0°F8.9°C 86% 2.9 mph NW4.7 kmh NW 4.9 mph7.9 kmh 30.22 in1023.4 mb 0.00 in0.0 mm 0.00 in0.0 mm 0.01 in0.3 mm
08:19 PM 52.0°F11.1°C 47.8°F8.8°C 86% 2.0 mph N3.2 kmh N 6.0 mph9.7 kmh 30.22 in1023.4 mb 0.00 in0.0 mm 0.00 in0.0 mm 0.01 in0.3 mm
08:29 PM 52.0°F11.1°C 47.8°F8.8°C 86% Calm Calm -- 30.23 in1023.7 mb 0.00 in0.0 mm 0.00 in0.0 mm 0.01 in0.3 mm
08:39 PM 51.8°F11.0°C 47.7°F8.7°C 86% Calm Calm -- 30.22 in1023.4 mb 0.00 in0.0 mm 0.00 in0.0 mm 0.01 in0.3 mm
08:49 PM 51.4°F10.8°C 47.1°F8.4°C 85% 4.9 mph NNW7.9 kmh NNW 13.0 mph20.9 kmh 30.23 in1023.7 mb 0.00 in0.0 mm 0.00 in0.0 mm 0.01 in0.3 mm
08:59 PM 51.6°F10.9°C 47.3°F8.5°C 85% 4.9 mph N7.9 kmh N 13.0 mph20.9 kmh 30.23 in1023.7 mb 0.00 in0.0 mm 0.00 in0.0 mm 0.01 in0.3 mm
09:09 PM 51.6°F10.9°C 47.3°F8.5°C 85% 4.9 mph N7.9 kmh N 12.1 mph19.5 kmh 30.24 in1024.0 mb 0.00 in0.0 mm 0.00 in0.0 mm 0.01 in0.3 mm
09:19 PM 51.6°F10.9°C 47.3°F8.5°C 85% 4.9 mph N7.9 kmh N 8.9 mph14.3 kmh 30.23 in1023.7 mb 0.00 in0.0 mm 0.00 in0.0 mm 0.01 in0.3 mm
09:29 PM 51.6°F10.9°C 47.3°F8.5°C 85% 6.9 mph NW11.1 kmh NW 12.1 mph19.5 kmh 30.23 in1023.7 mb 0.00 in0.0 mm 0.00 in0.0 mm 0.01 in0.3 mm
09:39 PM 51.6°F10.9°C 46.9°F8.3°C 84% 6.0 mph N9.7 kmh N 12.1 mph19.5 kmh 30.23 in1023.7 mb 0.00 in0.0 mm 0.00 in0.0 mm 0.01 in0.3 mm
09:50 PM 51.6°F10.9°C 47.3°F8.5°C 85% 4.0 mph N6.4 kmh N 8.9 mph14.3 kmh 30.23 in1023.7 mb 0.00 in0.0 mm 0.00 in0.0 mm 0.01 in0.3 mm
10:00 PM 51.4°F10.8°C 46.8°F8.2°C 84% 4.0 mph NNW6.4 kmh NNW 8.1 mph13.0 kmh 30.23 in1023.7 mb 0.00 in0.0 mm 0.00 in0.0 mm 0.01 in0.3 mm
10:10 PM 51.4°F10.8°C 46.8°F8.2°C 84% 2.9 mph NE4.7 kmh NE 6.9 mph11.1 kmh 30.22 in1023.4 mb 0.00 in0.0 mm 0.00 in0.0 mm 0.01 in0.3 mm
10:20 PM 51.4°F10.8°C 46.8°F8.2°C 84% 2.9 mph NW4.7 kmh NW 8.1 mph13.0 kmh 30.22 in1023.4 mb 0.00 in0.0 mm 0.00 in0.0 mm 0.01 in0.3 mm
10:30 PM 51.3°F10.7°C 46.6°F8.1°C 84% 2.0 mph NNE3.2 kmh NNE 4.0 mph6.4 kmh 30.21 in1023.0 mb 0.00 in0.0 mm 0.00 in0.0 mm 0.01 in0.3 mm
10:40 PM 51.1°F10.6°C 46.4°F8.0°C 84% 0.9 mph NNE1.4 kmh NNE 2.0 mph3.2 kmh 30.21 in1023.0 mb 0.00 in0.0 mm 0.00 in0.0 mm 0.01 in0.3 mm
10:50 PM 50.9°F10.5°C 46.6°F8.1°C 85% 0.9 mph NNE1.4 kmh NNE 2.9 mph4.7 kmh 30.21 in1023.0 mb 0.00 in0.0 mm 0.00 in0.0 mm 0.01 in0.3 mm
11:00 PM 50.7°F10.4°C 46.4°F8.0°C 85% 2.0 mph NW3.2 kmh NW 4.0 mph6.4 kmh 30.21 in1023.0 mb 0.00 in0.0 mm 0.00 in0.0 mm 0.01 in0.3 mm
11:10 PM 50.7°F10.4°C 46.4°F8.0°C 85% 2.0 mph N3.2 kmh N 4.9 mph7.9 kmh 30.21 in1023.0 mb 0.00 in0.0 mm 0.00 in0.0 mm 0.01 in0.3 mm
11:20 PM 51.1°F10.6°C 46.8°F8.2°C 85% 2.9 mph N4.7 kmh N 6.0 mph9.7 kmh 30.21 in1023.0 mb 0.00 in0.0 mm 0.00 in0.0 mm 0.01 in0.3 mm
11:30 PM 51.1°F10.6°C 46.8°F8.2°C 85% 2.0 mph N3.2 kmh N 2.9 mph4.7 kmh 30.21 in1023.0 mb 0.00 in0.0 mm 0.00 in0.0 mm 0.01 in0.3 mm
11:41 PM 51.1°F10.6°C 46.8°F8.2°C 85% 2.0 mph N3.2 kmh N 4.0 mph6.4 kmh 30.21 in1023.0 mb 0.00 in0.0 mm 0.00 in0.0 mm 0.01 in0.3 mm
11:51 PM 51.1°F10.6°C 46.8°F8.2°C 85% 0.9 mph N1.4 kmh N 4.0 mph6.4 kmh 30.21 in1023.0 mb 0.00 in0.0 mm 0.00 in0.0 mm 0.01 in0.3 mm